sensor_id;sensor_type;location;lat;lon;timestamp;pressure;altitude;pressure_sealevel;temperature;humidity
53270;BME280;39159;45.634;9.420;2024-03-17T00:00:22;99364.69;;;12.01;100.00
53270;BME280;39159;45.634;9.420;2024-03-17T00:02:47;99369.75;;;12.08;100.00
53270;BME280;39159;45.634;9.420;2024-03-17T00:05:13;99369.63;;;12.13;100.00
53270;BME280;39159;45.634;9.420;2024-03-17T00:07:39;99372.56;;;12.16;100.00
53270;BME280;39159;45.634;9.420;2024-03-17T00:10:05;99375.59;;;12.15;100.00
53270;BME280;39159;45.634;9.420;2024-03-17T00:12:32;99382.16;;;12.14;100.00
53270;BME280;39159;45.634;9.420;2024-03-17T00:14:58;99376.41;;;12.15;100.00
53270;BME280;39159;45.634;9.420;2024-03-17T00:17:23;99376.09;;;12.17;100.00
53270;BME280;39159;45.634;9.420;2024-03-17T00:19:49;99384.44;;;12.12;100.00
53270;BME280;39159;45.634;9.420;2024-03-17T00:22:14;99368.09;;;12.07;100.00
53270;BME280;39159;45.634;9.420;2024-03-17T00:24:40;99374.88;;;12.09;100.00
53270;BME280;39159;45.634;9.420;2024-03-17T00:27:07;99374.59;;;12.11;100.00
53270;BME280;39159;45.634;9.420;2024-03-17T00:29:33;99378.75;;;12.08;100.00
53270;BME280;39159;45.634;9.420;2024-03-17T00:31:58;99373.41;;;12.03;100.00
53270;BME280;39159;45.634;9.420;2024-03-17T00:34:24;99374.78;;;12.00;100.00
53270;BME280;39159;45.634;9.420;2024-03-17T00:36:49;99369.56;;;11.90;100.00
53270;BME280;39159;45.634;9.420;2024-03-17T00:39:16;99376.22;;;11.84;100.00
53270;BME280;39159;45.634;9.420;2024-03-17T00:41:42;99378.28;;;11.78;100.00
53270;BME280;39159;45.634;9.420;2024-03-17T00:44:07;99377.34;;;11.69;100.00
53270;BME280;39159;45.634;9.420;2024-03-17T00:46:33;99376.34;;;11.65;100.00
53270;BME280;39159;45.634;9.420;2024-03-17T00:49:00;99376.34;;;11.65;100.00
53270;BME280;39159;45.634;9.420;2024-03-17T00:51:25;99379.38;;;11.64;100.00
53270;BME280;39159;45.634;9.420;2024-03-17T00:53:51;99372.22;;;11.54;100.00
53270;BME280;39159;45.634;9.420;2024-03-17T00:56:16;99376.03;;;11.39;100.00
53270;BME280;39159;45.634;9.420;2024-03-17T00:58:42;99374.63;;;11.28;100.00
53270;BME280;39159;45.634;9.420;2024-03-17T01:01:07;99374.78;;;11.17;100.00
53270;BME280;39159;45.634;9.420;2024-03-17T01:03:33;99377.53;;;11.17;100.00
53270;BME280;39159;45.634;9.420;2024-03-17T01:05:58;99383.78;;;11.18;100.00
53270;BME280;39159;45.634;9.420;2024-03-17T01:08:24;99383.72;;;11.23;100.00
53270;BME280;39159;45.634;9.420;2024-03-17T01:10:49;99384.91;;;11.17;100.00
53270;BME280;39159;45.634;9.420;2024-03-17T01:13:15;99381.56;;;11.20;100.00
53270;BME280;39159;45.634;9.420;2024-03-17T01:15:41;99377.94;;;11.25;100.00
53270;BME280;39159;45.634;9.420;2024-03-17T01:18:07;99374.28;;;11.29;100.00
53270;BME280;39159;45.634;9.420;2024-03-17T01:20:35;99366.88;;;11.16;100.00
53270;BME280;39159;45.634;9.420;2024-03-17T01:23:01;99365.47;;;11.05;100.00
53270;BME280;39159;45.634;9.420;2024-03-17T01:25:27;99369.94;;;11.01;100.00
53270;BME280;39159;45.634;9.420;2024-03-17T01:27:54;99369.41;;;10.98;100.00
53270;BME280;39159;45.634;9.420;2024-03-17T01:30:20;99368.06;;;10.96;100.00
53270;BME280;39159;45.634;9.420;2024-03-17T01:32:46;99367.25;;;10.95;100.00
53270;BME280;39159;45.634;9.420;2024-03-17T01:35:11;99362.41;;;10.92;100.00
53270;BME280;39159;45.634;9.420;2024-03-17T01:37:37;99355.25;;;10.96;100.00
53270;BME280;39159;45.634;9.420;2024-03-17T01:40:03;99353.84;;;10.99;100.00
53270;BME280;39159;45.634;9.420;2024-03-17T01:42:33;99358.91;;;11.06;100.00
53270;BME280;39159;45.634;9.420;2024-03-17T01:44:58;99360.22;;;11.08;100.00
53270;BME280;39159;45.634;9.420;2024-03-17T01:47:24;99355.56;;;11.09;100.00
53270;BME280;39159;45.634;9.420;2024-03-17T01:49:50;99350.59;;;11.11;100.00
53270;BME280;39159;45.634;9.420;2024-03-17T01:52:17;99355.03;;;11.07;100.00
53270;BME280;39159;45.634;9.420;2024-03-17T01:54:44;99355.88;;;11.07;100.00
53270;BME280;39159;45.634;9.420;2024-03-17T01:57:11;99356.16;;;11.06;100.00
53270;BME280;39159;45.634;9.420;2024-03-17T01:59:36;99357.06;;;11.01;100.00
53270;BME280;39159;45.634;9.420;2024-03-17T02:02:02;99354.41;;;10.96;100.00
53270;BME280;39159;45.634;9.420;2024-03-17T02:04:29;99344.41;;;10.91;100.00
53270;BME280;39159;45.634;9.420;2024-03-17T02:06:54;99341.66;;;10.91;100.00
53270;BME280;39159;45.634;9.420;2024-03-17T02:09:20;99341.75;;;10.86;100.00
53270;BME280;39159;45.634;9.420;2024-03-17T02:11:47;99339.53;;;10.88;100.00
53270;BME280;39159;45.634;9.420;2024-03-17T02:14:13;99337.44;;;10.85;100.00
53270;BME280;39159;45.634;9.420;2024-03-17T02:16:40;99340.44;;;10.84;100.00
53270;BME280;39159;45.634;9.420;2024-03-17T02:19:05;99337.94;;;10.87;100.00
53270;BME280;39159;45.634;9.420;2024-03-17T02:21:31;99334.69;;;10.85;100.00
53270;BME280;39159;45.634;9.420;2024-03-17T02:23:56;99338.53;;;10.84;100.00
53270;BME280;39159;45.634;9.420;2024-03-17T02:26:23;99337.09;;;10.87;100.00
53270;BME280;39159;45.634;9.420;2024-03-17T02:28:49;99335.88;;;10.79;100.00
53270;BME280;39159;45.634;9.420;2024-03-17T02:31:16;99339.72;;;10.78;100.00
53270;BME280;39159;45.634;9.420;2024-03-17T02:33:43;99341.44;;;10.74;100.00
53270;BME280;39159;45.634;9.420;2024-03-17T02:36:09;99331.72;;;10.68;100.00
53270;BME280;39159;45.634;9.420;2024-03-17T02:38:37;99339.50;;;10.61;100.00
53270;BME280;39159;45.634;9.420;2024-03-17T02:41:21;99337.63;;;10.56;100.00
53270;BME280;39159;45.634;9.420;2024-03-17T02:43:47;99338.22;;;10.53;100.00
53270;BME280;39159;45.634;9.420;2024-03-17T02:46:17;99340.16;;;10.52;100.00
53270;BME280;39159;45.634;9.420;2024-03-17T02:48:44;99332.06;;;10.47;100.00
53270;BME280;39159;45.634;9.420;2024-03-17T02:51:15;99336.69;;;10.47;100.00
53270;BME280;39159;45.634;9.420;2024-03-17T02:53:42;99333.25;;;10.41;100.00
53270;BME280;39159;45.634;9.420;2024-03-17T02:56:08;99332.13;;;10.42;100.00
53270;BME280;39159;45.634;9.420;2024-03-17T02:58:35;99328.88;;;10.40;100.00
53270;BME280;39159;45.634;9.420;2024-03-17T03:01:01;99323.50;;;10.35;100.00
53270;BME280;39159;45.634;9.420;2024-03-17T03:03:26;99325.97;;;10.36;100.00
53270;BME280;39159;45.634;9.420;2024-03-17T03:05:52;99325.63;;;10.38;100.00
53270;BME280;39159;45.634;9.420;2024-03-17T03:08:17;99327.88;;;10.36;100.00
53270;BME280;39159;45.634;9.420;2024-03-17T03:10:44;99332.81;;;10.34;100.00
53270;BME280;39159;45.634;9.420;2024-03-17T03:13:10;99323.59;;;10.30;100.00
53270;BME280;39159;45.634;9.420;2024-03-17T03:15:36;99326.38;;;10.25;100.00
53270;BME280;39159;45.634;9.420;2024-03-17T03:18:01;99325.94;;;10.17;100.00
53270;BME280;39159;45.634;9.420;2024-03-17T03:20:27;99321.88;;;10.15;100.00
53270;BME280;39159;45.634;9.420;2024-03-17T03:22:53;99325.34;;;10.02;100.00
53270;BME280;39159;45.634;9.420;2024-03-17T03:25:18;99317.53;;;9.95;100.00
53270;BME280;39159;45.634;9.420;2024-03-17T03:27:44;99321.16;;;9.90;100.00
53270;BME280;39159;45.634;9.420;2024-03-17T03:30:10;99315.19;;;9.88;100.00
53270;BME280;39159;45.634;9.420;2024-03-17T03:32:35;99310.00;;;9.87;100.00
53270;BME280;39159;45.634;9.420;2024-03-17T03:35:04;99314.66;;;9.86;100.00
53270;BME280;39159;45.634;9.420;2024-03-17T03:37:30;99316.31;;;9.87;100.00
53270;BME280;39159;45.634;9.420;2024-03-17T03:39:56;99305.06;;;9.89;100.00
53270;BME280;39159;45.634;9.420;2024-03-17T03:42:21;99308.84;;;9.93;100.00
53270;BME280;39159;45.634;9.420;2024-03-17T03:44:48;99306.88;;;9.99;100.00
53270;BME280;39159;45.634;9.420;2024-03-17T03:47:14;99307.66;;;9.99;100.00
53270;BME280;39159;45.634;9.420;2024-03-17T03:49:40;99322.34;;;10.03;100.00
53270;BME280;39159;45.634;9.420;2024-03-17T03:52:05;99319.63;;;10.03;100.00
53270;BME280;39159;45.634;9.420;2024-03-17T03:54:30;99310.25;;;10.09;100.00
53270;BME280;39159;45.634;9.420;2024-03-17T03:56:56;99311.25;;;10.13;100.00
53270;BME280;39159;45.634;9.420;2024-03-17T03:59:21;99313.69;;;10.15;100.00
53270;BME280;39159;45.634;9.420;2024-03-17T04:01:47;99312.91;;;10.14;100.00
53270;BME280;39159;45.634;9.420;2024-03-17T04:04:14;99317.22;;;10.15;100.00
53270;BME280;39159;45.634;9.420;2024-03-17T04:06:40;99321.00;;;10.20;100.00
53270;BME280;39159;45.634;9.420;2024-03-17T04:09:05;99314.44;;;10.21;100.00
53270;BME280;39159;45.634;9.420;2024-03-17T04:11:32;99315.25;;;10.21;100.00
53270;BME280;39159;45.634;9.420;2024-03-17T04:13:58;99315.78;;;10.23;100.00
53270;BME280;39159;45.634;9.420;2024-03-17T04:16:26;99322.03;;;10.24;100.00
53270;BME280;39159;45.634;9.420;2024-03-17T04:18:51;99323.88;;;10.28;100.00
53270;BME280;39159;45.634;9.420;2024-03-17T04:21:16;99328.16;;;10.34;100.00
53270;BME280;39159;45.634;9.420;2024-03-17T04:23:42;99319.25;;;10.29;100.00
53270;BME280;39159;45.634;9.420;2024-03-17T04:26:07;99331.69;;;10.35;100.00
53270;BME280;39159;45.634;9.420;2024-03-17T04:28:33;99338.47;;;10.37;100.00
53270;BME280;39159;45.634;9.420;2024-03-17T04:31:05;99342.00;;;10.38;100.00
53270;BME280;39159;45.634;9.420;2024-03-17T04:33:32;99353.75;;;10.39;100.00
53270;BME280;39159;45.634;9.420;2024-03-17T04:35:57;99349.91;;;10.40;100.00
53270;BME280;39159;45.634;9.420;2024-03-17T04:38:23;99358.91;;;10.40;100.00
53270;BME280;39159;45.634;9.420;2024-03-17T04:40:49;99359.41;;;10.42;100.00
53270;BME280;39159;45.634;9.420;2024-03-17T04:43:15;99362.13;;;10.42;100.00
53270;BME280;39159;45.634;9.420;2024-03-17T04:45:40;99360.25;;;10.43;100.00
53270;BME280;39159;45.634;9.420;2024-03-17T04:48:06;99360.72;;;10.45;100.00
53270;BME280;39159;45.634;9.420;2024-03-17T04:50:32;99361.75;;;10.49;100.00
53270;BME280;39159;45.634;9.420;2024-03-17T04:52:59;99365.31;;;10.49;99.66
53270;BME280;39159;45.634;9.420;2024-03-17T04:55:25;99361.47;;;10.50;97.34
53270;BME280;39159;45.634;9.420;2024-03-17T04:57:50;99365.81;;;10.51;96.49
53270;BME280;39159;45.634;9.420;2024-03-17T05:00:15;99359.56;;;10.51;95.65
53270;BME280;39159;45.634;9.420;2024-03-17T05:02:43;99366.66;;;10.52;95.23
53270;BME280;39159;45.634;9.420;2024-03-17T05:05:09;99356.81;;;10.51;94.38
53270;BME280;39159;45.634;9.420;2024-03-17T05:07:35;99359.34;;;10.47;94.07
53270;BME280;39159;45.634;9.420;2024-03-17T05:10:01;99362.59;;;10.49;93.65
53270;BME280;39159;45.634;9.420;2024-03-17T05:12:26;99368.06;;;10.49;93.49
53270;BME280;39159;45.634;9.420;2024-03-17T05:14:52;99357.72;;;10.46;92.21
53270;BME280;39159;45.634;9.420;2024-03-17T05:17:17;99358.00;;;10.45;91.33
53270;BME280;39159;45.634;9.420;2024-03-17T05:19:43;99354.28;;;10.41;90.48
53270;BME280;39159;45.634;9.420;2024-03-17T05:22:08;99366.50;;;10.43;90.00
53270;BME280;39159;45.634;9.420;2024-03-17T05:24:33;99368.63;;;10.46;89.22
53270;BME280;39159;45.634;9.420;2024-03-17T05:26:59;99376.53;;;10.48;88.54
53270;BME280;39159;45.634;9.420;2024-03-17T05:29:24;99371.88;;;10.48;86.76
53270;BME280;39159;45.634;9.420;2024-03-17T05:31:50;99372.66;;;10.68;100.00
53270;BME280;39159;45.634;9.420;2024-03-17T05:34:15;99379.56;;;10.79;94.50
53270;BME280;39159;45.634;9.420;2024-03-17T05:36:41;99382.00;;;10.81;88.71
53270;BME280;39159;45.634;9.420;2024-03-17T05:39:06;99387.28;;;10.91;90.74
53270;BME280;39159;45.634;9.420;2024-03-17T05:41:31;99390.44;;;10.98;85.64
53270;BME280;39159;45.634;9.420;2024-03-17T05:43:57;99390.44;;;10.98;84.58
53270;BME280;39159;45.634;9.420;2024-03-17T05:46:29;99384.97;;;10.98;84.96
53270;BME280;39159;45.634;9.420;2024-03-17T05:48:54;99394.19;;;11.02;83.42
53270;BME280;39159;45.634;9.420;2024-03-17T05:51:20;99399.06;;;11.05;87.71
53270;BME280;39159;45.634;9.420;2024-03-17T05:53:45;99392.38;;;11.11;83.20
53270;BME280;39159;45.634;9.420;2024-03-17T05:56:11;99400.00;;;11.14;79.70
53270;BME280;39159;45.634;9.420;2024-03-17T05:58:38;99402.84;;;11.23;82.22
53270;BME280;39159;45.634;9.420;2024-03-17T06:01:04;99401.84;;;11.33;82.77
53270;BME280;39159;45.634;9.420;2024-03-17T06:03:30;99402.06;;;11.36;81.23
53270;BME280;39159;45.634;9.420;2024-03-17T06:05:58;99414.50;;;11.43;80.94
53270;BME280;39159;45.634;9.420;2024-03-17T06:08:23;99404.06;;;11.45;78.82
53270;BME280;39159;45.634;9.420;2024-03-17T06:10:49;99414.31;;;11.53;80.15
53270;BME280;39159;45.634;9.420;2024-03-17T06:13:15;99413.69;;;11.56;80.82
53270;BME280;39159;45.634;9.420;2024-03-17T06:15:43;99418.06;;;11.57;79.51
53270;BME280;39159;45.634;9.420;2024-03-17T06:18:11;99413.69;;;11.56;78.60
53270;BME280;39159;45.634;9.420;2024-03-17T06:20:42;99417.22;;;11.43;81.65
53270;BME280;39159;45.634;9.420;2024-03-17T06:23:09;99410.94;;;11.28;82.93
53270;BME280;39159;45.634;9.420;2024-03-17T06:25:44;99409.72;;;11.20;84.00
53270;BME280;39159;45.634;9.420;2024-03-17T06:28:11;99413.25;;;11.21;85.08
53270;BME280;39159;45.634;9.420;2024-03-17T06:30:44;99427.72;;;11.22;84.59
53270;BME280;39159;45.634;9.420;2024-03-17T06:33:15;99431.25;;;11.22;84.26
53270;BME280;39159;45.634;9.420;2024-03-17T06:35:41;99421.06;;;11.28;84.40
53270;BME280;39159;45.634;9.420;2024-03-17T06:38:07;99429.97;;;11.33;83.82
53270;BME280;39159;45.634;9.420;2024-03-17T06:40:39;99433.63;;;11.43;85.79
53270;BME280;39159;45.634;9.420;2024-03-17T06:43:05;99436.47;;;11.51;84.62
53270;BME280;39159;45.634;9.420;2024-03-17T06:45:31;99431.63;;;11.62;83.95
53270;BME280;39159;45.634;9.420;2024-03-17T06:47:57;99434.28;;;11.67;81.30
53270;BME280;39159;45.634;9.420;2024-03-17T06:50:22;99439.13;;;11.70;82.56
53270;BME280;39159;45.634;9.420;2024-03-17T06:52:48;99435.38;;;11.80;82.38
53270;BME280;39159;45.634;9.420;2024-03-17T06:55:13;99427.28;;;11.89;81.75
53270;BME280;39159;45.634;9.420;2024-03-17T06:57:41;99428.91;;;12.03;81.74
53270;BME280;39159;45.634;9.420;2024-03-17T07:00:09;99429.38;;;12.19;80.10
53270;BME280;39159;45.634;9.420;2024-03-17T07:02:39;99436.38;;;12.26;79.69
53270;BME280;39159;45.634;9.420;2024-03-17T07:05:06;99432.84;;;12.25;79.13
53270;BME280;39159;45.634;9.420;2024-03-17T07:07:31;99445.81;;;12.19;77.03
53270;BME280;39159;45.634;9.420;2024-03-17T07:09:57;99443.03;;;12.33;78.31
53270;BME280;39159;45.634;9.420;2024-03-17T07:12:22;99445.34;;;12.40;76.42
53270;BME280;39159;45.634;9.420;2024-03-17T07:14:50;99436.63;;;12.52;75.88
53270;BME280;39159;45.634;9.420;2024-03-17T07:17:17;99439.31;;;12.65;73.70
53270;BME280;39159;45.634;9.420;2024-03-17T07:19:42;99454.38;;;12.77;74.07
53270;BME280;39159;45.634;9.420;2024-03-17T07:22:08;99451.16;;;12.97;74.81
53270;BME280;39159;45.634;9.420;2024-03-17T07:24:33;99450.34;;;13.19;71.13
53270;BME280;39159;45.634;9.420;2024-03-17T07:26:59;99445.16;;;13.40;68.26
53270;BME280;39159;45.634;9.420;2024-03-17T07:29:24;99451.72;;;13.62;66.89
53270;BME280;39159;45.634;9.420;2024-03-17T07:31:49;99448.25;;;13.79;65.99
53270;BME280;39159;45.634;9.420;2024-03-17T07:34:15;99448.78;;;13.98;65.23
53270;BME280;39159;45.634;9.420;2024-03-17T07:36:40;99445.94;;;14.12;64.47
53270;BME280;39159;45.634;9.420;2024-03-17T07:39:06;99456.00;;;14.34;62.08
53270;BME280;39159;45.634;9.420;2024-03-17T07:41:34;99453.94;;;14.57;62.22
53270;BME280;39159;45.634;9.420;2024-03-17T07:44:00;99459.59;;;14.87;61.93
53270;BME280;39159;45.634;9.420;2024-03-17T07:46:25;99457.97;;;14.95;60.33
53270;BME280;39159;45.634;9.420;2024-03-17T07:48:50;99458.28;;;15.10;59.70
53270;BME280;39159;45.634;9.420;2024-03-17T07:51:17;99456.81;;;15.22;58.95
53270;BME280;39159;45.634;9.420;2024-03-17T07:53:43;99460.53;;;15.26;57.77
53270;BME280;39159;45.634;9.420;2024-03-17T07:56:17;99450.88;;;15.58;58.14
53270;BME280;39159;45.634;9.420;2024-03-17T07:58:43;99450.75;;;15.46;56.33
53270;BME280;39159;45.634;9.420;2024-03-17T08:01:11;99456.81;;;15.69;56.61
53270;BME280;39159;45.634;9.420;2024-03-17T08:03:38;99447.53;;;15.91;55.62
53270;BME280;39159;45.634;9.420;2024-03-17T08:06:05;99455.84;;;15.82;53.89
53270;BME280;39159;45.634;9.420;2024-03-17T08:08:32;99454.22;;;15.81;55.02
53270;BME280;39159;45.634;9.420;2024-03-17T08:10:57;99452.88;;;15.40;53.08
53270;BME280;39159;45.634;9.420;2024-03-17T08:13:23;99454.19;;;15.34;53.28
53270;BME280;39159;45.634;9.420;2024-03-17T08:16:00;99462.25;;;15.48;53.71
53270;BME280;39159;45.634;9.420;2024-03-17T08:18:26;99465.97;;;15.52;54.50
53270;BME280;39159;45.634;9.420;2024-03-17T08:20:52;99464.97;;;15.57;53.39
53270;BME280;39159;45.634;9.420;2024-03-17T08:23:19;99462.88;;;15.53;53.92
53270;BME280;39159;45.634;9.420;2024-03-17T08:25:58;99456.22;;;15.63;54.04
53270;BME280;39159;45.634;9.420;2024-03-17T08:28:25;99457.09;;;15.85;54.45
53270;BME280;39159;45.634;9.420;2024-03-17T08:30:59;99463.66;;;16.10;54.94
53270;BME280;39159;45.634;9.420;2024-03-17T08:33:25;99461.53;;;16.36;56.13
53270;BME280;39159;45.634;9.420;2024-03-17T08:35:59;99460.44;;;16.58;56.84
53270;BME280;39159;45.634;9.420;2024-03-17T08:38:26;99469.88;;;16.49;58.13
53270;BME280;39159;45.634;9.420;2024-03-17T08:40:53;99465.03;;;16.46;59.97
53270;BME280;39159;45.634;9.420;2024-03-17T08:43:20;99465.69;;;16.43;61.85
53270;BME280;39159;45.634;9.420;2024-03-17T08:46:00;99452.53;;;16.48;63.85
53270;BME280;39159;45.634;9.420;2024-03-17T08:48:29;99457.69;;;16.80;61.61
53270;BME280;39159;45.634;9.420;2024-03-17T08:50:56;99454.31;;;16.95;62.83
53270;BME280;39159;45.634;9.420;2024-03-17T08:53:22;99458.25;;;17.06;62.62
53270;BME280;39159;45.634;9.420;2024-03-17T08:55:47;99460.16;;;17.27;63.26
53270;BME280;39159;45.634;9.420;2024-03-17T08:58:13;99454.66;;;17.27;63.25
53270;BME280;39159;45.634;9.420;2024-03-17T09:00:40;99468.59;;;17.43;63.58
53270;BME280;39159;45.634;9.420;2024-03-17T09:03:07;99464.63;;;17.65;62.47
53270;BME280;39159;45.634;9.420;2024-03-17T09:05:36;99469.34;;;17.64;64.78
53270;BME280;39159;45.634;9.420;2024-03-17T09:08:01;99468.81;;;17.95;63.39
53270;BME280;39159;45.634;9.420;2024-03-17T09:10:26;99473.31;;;18.12;63.70
53270;BME280;39159;45.634;9.420;2024-03-17T09:12:52;99469.50;;;18.05;63.57
53270;BME280;39159;45.634;9.420;2024-03-17T09:15:17;99472.16;;;18.13;64.07
53270;BME280;39159;45.634;9.420;2024-03-17T09:17:43;99469.19;;;18.06;65.14
53270;BME280;39159;45.634;9.420;2024-03-17T09:20:11;99463.66;;;18.06;64.95
53270;BME280;39159;45.634;9.420;2024-03-17T09:22:38;99459.97;;;18.14;65.32
53270;BME280;39159;45.634;9.420;2024-03-17T09:25:07;99461.91;;;18.26;66.16
53270;BME280;39159;45.634;9.420;2024-03-17T09:27:33;99456.59;;;18.33;66.43
53270;BME280;39159;45.634;9.420;2024-03-17T09:29:59;99454.88;;;18.41;65.66
53270;BME280;39159;45.634;9.420;2024-03-17T09:32:25;99448.06;;;18.38;66.19
53270;BME280;39159;45.634;9.420;2024-03-17T09:34:50;99459.16;;;18.14;66.83
53270;BME280;39159;45.634;9.420;2024-03-17T09:37:16;99460.41;;;17.92;67.16
53270;BME280;39159;45.634;9.420;2024-03-17T09:39:41;99465.25;;;17.83;68.12
53270;BME280;39159;45.634;9.420;2024-03-17T09:42:17;99462.09;;;17.59;68.59
53270;BME280;39159;45.634;9.420;2024-03-17T09:44:47;99458.16;;;17.48;69.46
53270;BME280;39159;45.634;9.420;2024-03-17T09:47:20;99457.09;;;17.40;70.50
53270;BME280;39159;45.634;9.420;2024-03-17T09:49:47;99459.75;;;17.37;70.36
53270;BME280;39159;45.634;9.420;2024-03-17T09:52:22;99456.00;;;17.20;70.81
53270;BME280;39159;45.634;9.420;2024-03-17T09:54:58;99462.72;;;16.98;72.65
53270;BME280;39159;45.634;9.420;2024-03-17T09:57:25;99462.59;;;16.95;72.22
53270;BME280;39159;45.634;9.420;2024-03-17T09:59:52;99451.47;;;16.83;71.81
53270;BME280;39159;45.634;9.420;2024-03-17T10:02:18;99451.19;;;16.75;72.76
53270;BME280;39159;45.634;9.420;2024-03-17T10:04:43;99444.69;;;16.80;75.54
53270;BME280;39159;45.634;9.420;2024-03-17T10:07:09;99446.72;;;16.92;73.17
53270;BME280;39159;45.634;9.420;2024-03-17T10:09:35;99437.38;;;16.84;73.80
53270;BME280;39159;45.634;9.420;2024-03-17T10:12:01;99438.31;;;16.88;72.79
53270;BME280;39159;45.634;9.420;2024-03-17T10:14:27;99443.06;;;16.79;72.52
53270;BME280;39159;45.634;9.420;2024-03-17T10:16:52;99435.63;;;16.80;72.25
53270;BME280;39159;45.634;9.420;2024-03-17T10:19:24;99434.88;;;16.70;72.47
53270;BME280;39159;45.634;9.420;2024-03-17T10:21:50;99437.22;;;16.60;72.08
53270;BME280;39159;45.634;9.420;2024-03-17T10:24:23;99445.97;;;16.62;73.08
53270;BME280;39159;45.634;9.420;2024-03-17T10:26:53;99445.75;;;16.67;72.60
53270;BME280;39159;45.634;9.420;2024-03-17T10:29:34;99443.34;;;16.65;72.51
53270;BME280;39159;45.634;9.420;2024-03-17T10:32:13;99441.56;;;16.61;73.05
53270;BME280;39159;45.634;9.420;2024-03-17T10:34:39;99429.91;;;16.64;72.54
53270;BME280;39159;45.634;9.420;2024-03-17T10:37:08;99431.19;;;16.66;74.26
53270;BME280;39159;45.634;9.420;2024-03-17T10:39:37;99424.31;;;16.72;73.26
53270;BME280;39159;45.634;9.420;2024-03-17T10:42:06;99423.44;;;16.81;72.80
53270;BME280;39159;45.634;9.420;2024-03-17T10:44:34;99421.63;;;16.64;73.70
53270;BME280;39159;45.634;9.420;2024-03-17T10:47:01;99427.34;;;16.58;73.03
53270;BME280;39159;45.634;9.420;2024-03-17T10:49:31;99421.63;;;16.64;74.55
53270;BME280;39159;45.634;9.420;2024-03-17T10:52:08;99426.34;;;16.84;73.86
53270;BME280;39159;45.634;9.420;2024-03-17T10:54:40;99425.25;;;16.97;72.80
53270;BME280;39159;45.634;9.420;2024-03-17T11:00:00;99411.31;;;17.27;72.94
53270;BME280;39159;45.634;9.420;2024-03-17T11:02:28;99410.09;;;17.37;72.87
53270;BME280;39159;45.634;9.420;2024-03-17T11:04:59;99405.59;;;17.45;73.26
53270;BME280;39159;45.634;9.420;2024-03-17T11:07:25;99408.34;;;17.45;73.10
53270;BME280;39159;45.634;9.420;2024-03-17T11:09:53;99417.34;;;17.42;74.41
53270;BME280;39159;45.634;9.420;2024-03-17T11:17:46;99418.75;;;18.09;74.62
53270;BME280;39159;45.634;9.420;2024-03-17T11:20:17;99417.00;;;18.41;73.47
53270;BME280;39159;45.634;9.420;2024-03-17T11:22:45;99413.19;;;18.46;72.17
53270;BME280;39159;45.634;9.420;2024-03-17T11:25:37;99413.09;;;18.30;73.91
53270;BME280;39159;45.634;9.420;2024-03-17T11:28:03;99407.31;;;18.48;73.01
53270;BME280;39159;45.634;9.420;2024-03-17T11:30:48;99404.84;;;18.58;72.58
53270;BME280;39159;45.634;9.420;2024-03-17T11:39:07;99411.22;;;19.15;70.79
53270;BME280;39159;45.634;9.420;2024-03-17T11:41:45;99412.06;;;19.48;70.19
53270;BME280;39159;45.634;9.420;2024-03-17T11:46:52;99402.69;;;19.84;64.28
53270;BME280;39159;45.634;9.420;2024-03-17T11:51:55;99401.16;;;19.86;64.26
53270;BME280;39159;45.634;9.420;2024-03-17T11:54:23;99400.75;;;20.20;61.88
53270;BME280;39159;45.634;9.420;2024-03-17T11:56:50;99388.38;;;20.33;62.90
53270;BME280;39159;45.634;9.420;2024-03-17T11:59:17;99380.81;;;20.14;62.39
53270;BME280;39159;45.634;9.420;2024-03-17T12:01:46;99382.03;;;19.97;62.92
53270;BME280;39159;45.634;9.420;2024-03-17T12:04:13;99379.53;;;19.60;63.34
53270;BME280;39159;45.634;9.420;2024-03-17T12:06:39;99374.66;;;19.70;61.79
53270;BME280;39159;45.634;9.420;2024-03-17T12:09:11;99366.16;;;19.46;64.36
53270;BME280;39159;45.634;9.420;2024-03-17T12:11:42;99360.34;;;19.67;60.24
53270;BME280;39159;45.634;9.420;2024-03-17T12:14:18;99364.81;;;19.88;59.42
53270;BME280;39159;45.634;9.420;2024-03-17T12:16:51;99359.53;;;19.83;60.26
53270;BME280;39159;45.634;9.420;2024-03-17T12:19:17;99364.91;;;19.76;60.50
53270;BME280;39159;45.634;9.420;2024-03-17T12:21:45;99356.59;;;19.44;62.20
53270;BME280;39159;45.634;9.420;2024-03-17T12:24:15;99347.13;;;19.29;62.21
53270;BME280;39159;45.634;9.420;2024-03-17T12:26:42;99335.72;;;19.15;63.65
53270;BME280;39159;45.634;9.420;2024-03-17T12:31:59;99321.41;;;19.60;64.65
53270;BME280;39159;45.634;9.420;2024-03-17T12:34:27;99313.53;;;19.78;60.36
53270;BME280;39159;45.634;9.420;2024-03-17T12:36:54;99304.81;;;19.96;61.65
53270;BME280;39159;45.634;9.420;2024-03-17T12:39:27;99311.22;;;20.35;60.21
53270;BME280;39159;45.634;9.420;2024-03-17T12:44:28;99315.78;;;19.73;62.46
53270;BME280;39159;45.634;9.420;2024-03-17T12:46:55;99312.72;;;19.78;59.70
53270;BME280;39159;45.634;9.420;2024-03-17T12:49:21;99312.84;;;19.81;60.96
53270;BME280;39159;45.634;9.420;2024-03-17T12:51:47;99297.56;;;19.72;58.99
53270;BME280;39159;45.634;9.420;2024-03-17T12:54:19;99294.44;;;19.73;59.92
53270;BME280;39159;45.634;9.420;2024-03-17T12:56:45;99293.94;;;19.87;58.80
53270;BME280;39159;45.634;9.420;2024-03-17T12:59:42;99293.25;;;19.74;59.93
53270;BME280;39159;45.634;9.420;2024-03-17T13:02:26;99270.34;;;19.93;61.14
53270;BME280;39159;45.634;9.420;2024-03-17T13:07:31;99287.13;;;20.20;61.65
53270;BME280;39159;45.634;9.420;2024-03-17T13:09:57;99287.84;;;20.36;62.32
53270;BME280;39159;45.634;9.420;2024-03-17T13:12:22;99289.25;;;20.46;61.74
53270;BME280;39159;45.634;9.420;2024-03-17T13:14:47;99284.88;;;20.25;59.49
53270;BME280;39159;45.634;9.420;2024-03-17T13:17:15;99295.38;;;19.81;60.31
53270;BME280;39159;45.634;9.420;2024-03-17T13:19:46;99285.78;;;19.75;61.52
53270;BME280;39159;45.634;9.420;2024-03-17T13:22:12;99285.63;;;19.87;61.53
53270;BME280;39159;45.634;9.420;2024-03-17T13:24:38;99280.53;;;19.89;57.04